Terminal Aerodrome Forecast
Issued by NWS Charleston, WV

Current Version | Previous Version | Graphics & Text | Print | Product List | Glossary On
Versions: 1 2 3 4 5 6 7 8 9 10 11 12 13 14 15 16 17 18 19 20 21 22 23 24 25 26 27 28
000
FTUS41 KRLX 252112 AAC
TAFEKN
TAF AMD
KEKN 252112Z 2521/2618 27011G22KT P6SM SCT050 BKN060 BKN080
     FM260300 29014G22KT 6SM -SHSN BKN025
     FM261000 27012G20KT P6SM BKN035
     FM261700 27007KT P6SM FEW150=

USA.gov is the U.S. government's official web portal to all federal, state and local government web resources and services.